createdAt,value
2022-10-15T00:01:39.845Z,12.55
2022-10-15T00:04:06.612Z,12.53
2022-10-15T00:06:34.823Z,12.51
2022-10-15T00:09:01.928Z,12.48
2022-10-15T00:11:29.324Z,12.45
2022-10-15T00:13:58.431Z,12.41
2022-10-15T00:16:27.020Z,12.36
2022-10-15T00:18:56.365Z,12.33
2022-10-15T00:21:23.137Z,12.29
2022-10-15T00:23:51.722Z,12.25
2022-10-15T00:26:20.046Z,12.21
2022-10-15T00:28:47.321Z,12.16
2022-10-15T00:31:16.034Z,12.13
2022-10-15T00:33:43.546Z,12.10
2022-10-15T00:36:13.574Z,12.09
2022-10-15T00:38:40.332Z,12.05
2022-10-15T00:41:12.830Z,12.03
2022-10-15T00:43:42.507Z,12.03
2022-10-15T00:46:17.895Z,12.02
2022-10-15T00:48:48.287Z,12.00
2022-10-15T00:51:17.396Z,11.98
2022-10-15T00:53:44.739Z,11.96
2022-10-15T00:56:13.729Z,11.95
2022-10-15T00:58:40.917Z,11.92
2022-10-15T01:01:07.730Z,11.90
2022-10-15T01:03:35.913Z,11.86
2022-10-15T01:06:03.826Z,11.84
2022-10-15T01:08:30.539Z,11.83
2022-10-15T01:11:10.449Z,11.82
2022-10-15T01:13:49.442Z,11.82
2022-10-15T01:16:20.192Z,11.83
2022-10-15T01:18:54.261Z,11.83
2022-10-15T01:21:29.390Z,11.83
2022-10-15T01:24:49.912Z,11.85
2022-10-15T01:27:27.619Z,11.86
2022-10-15T01:30:21.177Z,11.87
2022-10-15T01:33:00.136Z,11.86
2022-10-15T01:35:36.415Z,11.88
2022-10-15T01:38:10.104Z,11.89
2022-10-15T01:40:44.759Z,11.88
2022-10-15T01:43:15.792Z,11.89
2022-10-15T01:45:49.317Z,11.91
2022-10-15T01:48:17.946Z,11.93
2022-10-15T01:50:47.698Z,11.95
2022-10-15T01:53:17.413Z,11.96
2022-10-15T01:55:47.461Z,11.98
2022-10-15T01:58:16.214Z,11.99
2022-10-15T02:00:44.742Z,12.02
2022-10-15T02:03:11.567Z,12.03
2022-10-15T02:05:42.372Z,12.05
2022-10-15T02:08:19.735Z,12.07
2022-10-15T02:10:54.099Z,12.08
2022-10-15T02:13:25.791Z,12.08
2022-10-15T02:16:02.179Z,12.11
2022-10-15T02:18:37.046Z,12.14
2022-10-15T02:21:10.064Z,12.16
2022-10-15T02:23:43.079Z,12.19
2022-10-15T02:26:12.254Z,12.21
2022-10-15T02:28:44.224Z,12.23
2022-10-15T02:31:15.226Z,12.25
2022-10-15T02:33:43.041Z,12.28
2022-10-15T02:36:09.877Z,12.29
2022-10-15T02:38:38.771Z,12.31
2022-10-15T02:41:07.654Z,12.34
2022-10-15T02:43:35.518Z,12.34
2022-10-15T02:46:02.154Z,12.34
2022-10-15T02:48:30.241Z,12.34
2022-10-15T02:50:57.133Z,12.35
2022-10-15T02:53:23.778Z,12.35
2022-10-15T02:55:50.347Z,12.35
2022-10-15T02:58:16.995Z,12.36
2022-10-15T03:00:43.663Z,12.37
2022-10-15T03:03:10.921Z,12.37
2022-10-15T03:05:39.004Z,12.39
2022-10-15T03:08:05.711Z,12.39
2022-10-15T03:10:32.340Z,12.39
2022-10-15T03:13:02.887Z,12.38
2022-10-15T03:15:29.780Z,12.37
2022-10-15T03:17:56.540Z,12.36
2022-10-15T03:20:23.431Z,12.33
2022-10-15T03:22:51.436Z,12.30
2022-10-15T03:25:18.091Z,12.27
2022-10-15T03:27:44.756Z,12.25
2022-10-15T03:30:11.937Z,12.23
2022-10-15T03:32:40.556Z,12.23
2022-10-15T03:35:08.432Z,12.22
2022-10-15T03:37:35.040Z,12.21
2022-10-15T03:40:03.506Z,12.19
2022-10-15T03:42:30.088Z,12.20
2022-10-15T03:44:56.912Z,12.22
2022-10-15T03:47:23.490Z,12.22
2022-10-15T03:49:50.121Z,12.21
2022-10-15T03:52:17.566Z,12.22
2022-10-15T03:54:44.287Z,12.23
2022-10-15T03:57:13.616Z,12.27
2022-10-15T03:59:40.389Z,12.29
2022-10-15T04:02:07.167Z,12.31
2022-10-15T04:04:33.907Z,12.34
2022-10-15T04:07:00.604Z,12.36
2022-10-15T04:09:27.249Z,12.39
2022-10-15T04:11:53.882Z,12.37
2022-10-15T04:14:21.822Z,12.35
2022-10-15T04:16:48.523Z,12.38
2022-10-15T04:19:16.020Z,12.38
2022-10-15T04:21:42.918Z,12.37
2022-10-15T04:24:09.572Z,12.39
2022-10-15T04:26:36.390Z,12.38
2022-10-15T04:29:03.073Z,12.40
2022-10-15T04:31:32.448Z,12.44
2022-10-15T04:33:59.143Z,12.46
2022-10-15T04:36:25.785Z,12.48
2022-10-15T04:38:52.794Z,12.49
2022-10-15T04:41:19.437Z,12.52
2022-10-15T04:43:46.090Z,12.53
2022-10-15T04:46:12.680Z,12.57
2022-10-15T04:48:43.126Z,12.58
2022-10-15T04:51:12.946Z,12.61
2022-10-15T04:53:40.581Z,12.64
2022-10-15T04:56:10.420Z,12.67
2022-10-15T04:58:37.212Z,12.70
2022-10-15T05:01:06.271Z,12.74
2022-10-15T05:03:36.488Z,12.77
2022-10-15T05:06:09.970Z,12.82
2022-10-15T05:08:38.127Z,12.83
2022-10-15T05:11:06.909Z,12.87
2022-10-15T05:13:34.218Z,12.90
2022-10-15T05:16:09.596Z,12.92
2022-10-15T05:18:36.177Z,12.94
2022-10-15T05:21:03.138Z,12.98
2022-10-15T05:23:31.316Z,13.01
2022-10-15T05:25:59.936Z,13.03
2022-10-15T05:28:26.678Z,13.06
2022-10-15T05:30:53.367Z,13.10
2022-10-15T05:33:20.832Z,13.12
2022-10-15T05:35:48.007Z,13.16
2022-10-15T05:38:14.653Z,13.18
2022-10-15T05:40:47.881Z,13.21
2022-10-15T05:43:14.690Z,13.21
2022-10-15T05:45:41.495Z,13.25
2022-10-15T05:48:08.306Z,13.27
2022-10-15T05:50:34.950Z,13.28
2022-10-15T05:53:01.620Z,13.31
2022-10-15T05:55:28.175Z,13.33
2022-10-15T05:58:00.465Z,13.36
2022-10-15T06:00:27.079Z,13.38
2022-10-15T06:05:20.206Z,13.40
2022-10-15T06:07:46.767Z,13.42
2022-10-15T06:10:13.605Z,13.44
2022-10-15T06:12:41.399Z,13.46
2022-10-15T06:15:10.490Z,13.49
2022-10-15T06:17:37.406Z,13.51
2022-10-15T06:20:08.151Z,13.53
2022-10-15T06:22:35.010Z,13.55
2022-10-15T06:25:01.797Z,13.57
2022-10-15T06:27:28.495Z,13.59
2022-10-15T06:29:55.110Z,13.62
2022-10-15T06:32:24.299Z,13.64
2022-10-15T06:34:51.070Z,13.65
2022-10-15T06:37:17.665Z,13.68
2022-10-15T06:39:44.560Z,13.70
2022-10-15T06:42:11.118Z,13.72
2022-10-15T06:44:37.884Z,13.74
2022-10-15T06:47:04.710Z,13.76
2022-10-15T06:49:32.690Z,13.79
2022-10-15T06:52:03.412Z,13.80
2022-10-15T06:54:30.624Z,13.81
2022-10-15T06:56:57.313Z,13.83
2022-10-15T06:59:24.555Z,13.85
2022-10-15T07:01:51.317Z,13.88
2022-10-15T07:04:17.908Z,13.90
2022-10-15T07:06:45.934Z,13.92
2022-10-15T07:09:12.547Z,13.93
2022-10-15T07:11:40.194Z,13.95
2022-10-15T07:14:06.918Z,13.97
2022-10-15T07:16:33.946Z,13.97
2022-10-15T07:19:00.542Z,13.98
2022-10-15T07:21:27.226Z,14.00
2022-10-15T07:23:55.275Z,14.03
2022-10-15T07:26:22.021Z,14.04
2022-10-15T07:28:48.757Z,14.06
2022-10-15T07:31:15.438Z,14.07
2022-10-15T07:33:43.014Z,14.09
2022-10-15T07:36:12.781Z,14.09
2022-10-15T07:38:42.320Z,14.10
2022-10-15T07:41:11.022Z,14.13
2022-10-15T07:43:37.768Z,14.15
2022-10-15T07:46:05.684Z,14.16
2022-10-15T07:48:32.933Z,14.17
2022-10-15T07:51:01.488Z,14.18
2022-10-15T07:53:28.187Z,14.18
2022-10-15T07:55:58.863Z,14.21
2022-10-15T07:58:26.987Z,14.22
2022-10-15T08:00:53.826Z,14.25
2022-10-15T08:03:20.684Z,14.26
2022-10-15T08:05:47.391Z,14.27
2022-10-15T08:08:14.079Z,14.29
2022-10-15T08:10:40.719Z,14.32
2022-10-15T08:13:07.433Z,14.34
2022-10-15T08:15:39.061Z,14.37
2022-10-15T08:18:05.773Z,14.39
2022-10-15T08:20:34.484Z,14.43
2022-10-15T08:23:01.082Z,14.44
2022-10-15T08:25:27.670Z,14.46
2022-10-15T08:27:54.656Z,14.48
2022-10-15T08:30:21.436Z,14.53
2022-10-15T08:32:49.443Z,14.57
2022-10-15T08:35:16.131Z,14.59
2022-10-15T08:37:42.795Z,14.62
2022-10-15T08:40:12.588Z,14.66
2022-10-15T08:42:41.814Z,14.69
2022-10-15T08:45:13.997Z,14.74
2022-10-15T08:47:43.867Z,14.77
2022-10-15T08:50:26.486Z,14.80
2022-10-15T08:52:55.908Z,14.82
2022-10-15T08:57:55.782Z,14.86
2022-10-15T09:00:24.836Z,14.88
2022-10-15T09:02:58.156Z,14.89
2022-10-15T09:05:39.017Z,14.93
2022-10-15T09:08:18.011Z,14.95
2022-10-15T09:10:48.940Z,14.99
2022-10-15T09:13:21.972Z,15.00
2022-10-15T09:15:52.586Z,15.04
2022-10-15T09:18:23.707Z,15.07
2022-10-15T09:20:53.701Z,15.10
2022-10-15T09:23:22.800Z,15.13
2022-10-15T09:25:56.928Z,15.15
2022-10-15T09:28:30.029Z,15.18
2022-10-15T09:30:58.342Z,15.22
2022-10-15T09:33:36.854Z,15.23
2022-10-15T09:36:18.316Z,15.26
2022-10-15T09:38:58.076Z,15.29
2022-10-15T09:41:35.328Z,15.34
2022-10-15T09:44:05.668Z,15.37
2022-10-15T09:46:33.932Z,15.40
2022-10-15T09:49:09.050Z,15.44
2022-10-15T09:51:44.051Z,15.46
2022-10-15T09:54:17.767Z,15.50
2022-10-15T09:56:48.396Z,15.53
2022-10-15T09:59:17.461Z,15.54
2022-10-15T10:01:57.689Z,15.58
2022-10-15T10:04:29.884Z,15.60
2022-10-15T10:07:04.615Z,15.62
2022-10-15T10:09:36.355Z,15.65
2022-10-15T10:12:06.856Z,15.66
2022-10-15T10:14:36.190Z,15.69
2022-10-15T10:17:08.647Z,15.73
2022-10-15T10:19:35.410Z,15.75
2022-10-15T10:22:14.043Z,15.77
2022-10-15T10:24:40.525Z,15.77
2022-10-15T10:27:18.773Z,15.77
2022-10-15T10:29:53.272Z,15.79
2022-10-15T10:32:22.179Z,15.79
2022-10-15T10:34:52.722Z,15.79
2022-10-15T10:37:22.599Z,15.80
2022-10-15T10:39:53.517Z,15.82
2022-10-15T10:42:32.651Z,15.81
2022-10-15T10:45:22.276Z,15.81
2022-10-15T10:47:49.926Z,15.79
2022-10-15T10:50:29.304Z,15.81
2022-10-15T10:52:59.991Z,15.80
2022-10-15T10:55:37.934Z,15.81
2022-10-15T10:58:04.638Z,15.81
2022-10-15T11:00:39.006Z,15.83
2022-10-15T11:03:10.195Z,15.84
2022-10-15T11:05:43.195Z,15.84
2022-10-15T11:08:21.509Z,15.85
2022-10-15T11:10:57.319Z,15.85
2022-10-15T11:13:44.820Z,15.87
2022-10-15T11:16:20.770Z,15.87
2022-10-15T11:19:13.628Z,15.90
2022-10-15T11:21:58.893Z,15.90
2022-10-15T11:24:42.604Z,15.91
2022-10-15T11:35:52.424Z,15.95
2022-10-15T11:38:27.722Z,15.96
2022-10-15T11:41:16.314Z,15.96
2022-10-15T11:44:21.555Z,15.98
2022-10-15T11:46:55.822Z,15.98
2022-10-15T11:49:41.460Z,15.99
2022-10-15T11:52:25.511Z,15.99
2022-10-15T11:55:08.967Z,16.02
2022-10-15T11:57:40.399Z,16.04
2022-10-15T12:00:20.451Z,16.08
2022-10-15T12:02:49.701Z,16.08
2022-10-15T12:05:20.896Z,16.11
2022-10-15T12:07:50.170Z,16.11
2022-10-15T12:10:33.264Z,16.13
2022-10-15T12:13:11.791Z,16.14
2022-10-15T12:15:46.284Z,16.15
2022-10-15T12:18:20.400Z,16.16
2022-10-15T12:20:47.240Z,16.18
2022-10-15T12:23:39.342Z,16.18
2022-10-15T12:26:28.527Z,16.21
2022-10-15T12:29:00.769Z,16.21
2022-10-15T12:31:48.909Z,16.24
2022-10-15T12:34:30.902Z,16.26
2022-10-15T12:37:03.672Z,16.29
2022-10-15T12:39:51.264Z,16.32
2022-10-15T12:42:26.119Z,16.35
2022-10-15T12:44:56.008Z,16.37
2022-10-15T12:47:48.929Z,16.40
2022-10-15T12:50:20.104Z,16.43
2022-10-15T12:52:59.137Z,16.46
2022-10-15T12:55:31.706Z,16.49
2022-10-15T12:58:04.881Z,16.51
2022-10-15T13:00:46.397Z,16.53
2022-10-15T13:03:31.594Z,16.56
2022-10-15T13:06:13.991Z,16.59
2022-10-15T13:08:44.479Z,16.62
2022-10-15T13:11:22.012Z,16.64
2022-10-15T13:13:50.969Z,16.67
2022-10-15T13:16:20.625Z,16.69
2022-10-15T13:18:50.555Z,16.72
2022-10-15T13:21:17.558Z,16.76
2022-10-15T13:23:48.757Z,16.80
2022-10-15T13:26:20.777Z,16.83
2022-10-15T13:28:49.064Z,16.88
2022-10-15T13:31:24.723Z,16.92
2022-10-15T13:33:55.006Z,16.94
2022-10-15T13:36:24.186Z,16.96
2022-10-15T13:38:57.031Z,17.01
2022-10-15T13:41:26.063Z,17.04
2022-10-15T13:43:58.494Z,17.08
2022-10-15T13:46:28.366Z,17.11
2022-10-15T13:49:00.387Z,17.15
2022-10-15T13:51:33.684Z,17.17
2022-10-15T13:54:02.581Z,17.19
2022-10-15T13:56:31.370Z,17.22
2022-10-15T13:59:01.752Z,17.23
2022-10-15T14:01:33.607Z,17.26
2022-10-15T14:04:01.843Z,17.28
2022-10-15T14:06:31.066Z,17.31
2022-10-15T14:08:59.984Z,17.34
2022-10-15T14:11:29.207Z,17.36
2022-10-15T14:13:59.901Z,17.37
2022-10-15T14:16:32.966Z,17.35
2022-10-15T14:19:09.726Z,17.31
2022-10-15T14:21:39.156Z,17.26
2022-10-15T14:24:07.758Z,17.21
2022-10-15T14:26:35.087Z,17.13
2022-10-15T14:29:02.649Z,17.08
2022-10-15T14:31:37.950Z,17.06
2022-10-15T14:34:05.062Z,17.04
2022-10-15T14:36:41.058Z,17.04
2022-10-15T14:39:28.937Z,17.03
2022-10-15T14:41:57.719Z,17.02
2022-10-15T14:44:25.734Z,17.02
2022-10-15T14:47:03.580Z,17.01
2022-10-15T14:49:33.133Z,17.03
2022-10-15T14:52:04.934Z,17.05
2022-10-15T14:54:36.760Z,17.06
2022-10-15T14:57:05.070Z,17.06
2022-10-15T14:59:36.257Z,17.08
2022-10-15T15:02:10.327Z,17.07
2022-10-15T15:04:42.877Z,17.05
2022-10-15T15:07:15.810Z,17.03
2022-10-15T15:09:42.625Z,17.03
2022-10-15T15:12:16.594Z,17.01
2022-10-15T15:14:43.532Z,16.99
2022-10-15T15:17:34.746Z,16.96
2022-10-15T15:20:01.575Z,16.94
2022-10-15T15:22:31.928Z,16.95
2022-10-15T15:25:00.667Z,16.93
2022-10-15T15:27:29.641Z,16.91
2022-10-15T15:29:57.222Z,16.89
2022-10-15T15:32:25.719Z,16.88
2022-10-15T15:34:52.945Z,16.85
2022-10-15T15:37:21.688Z,16.83
2022-10-15T15:39:48.985Z,16.82
2022-10-15T15:42:18.820Z,16.80
2022-10-15T15:44:45.739Z,16.77
2022-10-15T15:47:13.050Z,16.75
2022-10-15T15:49:43.158Z,16.74
2022-10-15T15:52:18.815Z,16.74
2022-10-15T15:54:48.980Z,16.71
2022-10-15T15:57:15.848Z,16.68
2022-10-15T15:59:42.515Z,16.67
2022-10-15T16:02:11.807Z,16.66
2022-10-15T16:04:39.302Z,16.64
2022-10-15T16:07:10.282Z,16.62
2022-10-15T16:09:40.145Z,16.61
2022-10-15T16:12:07.042Z,16.57
2022-10-15T16:14:33.830Z,16.55
2022-10-15T16:17:00.867Z,16.51
2022-10-15T16:19:27.461Z,16.47
2022-10-15T16:21:54.117Z,16.43
2022-10-15T16:24:22.120Z,16.39
2022-10-15T16:26:48.814Z,16.37
2022-10-15T16:29:16.987Z,16.34
2022-10-15T16:31:43.740Z,16.32
2022-10-15T16:34:10.351Z,16.31
2022-10-15T16:36:37.167Z,16.28
2022-10-15T16:39:04.075Z,16.25
2022-10-15T16:41:32.074Z,16.21
2022-10-15T16:43:58.914Z,16.18
2022-10-15T16:46:25.898Z,16.16
2022-10-15T16:48:54.322Z,16.12
2022-10-15T16:51:21.629Z,16.08
2022-10-15T16:53:49.639Z,16.01
2022-10-15T16:56:18.523Z,15.97
2022-10-15T16:58:47.390Z,15.94
2022-10-15T17:01:16.612Z,15.91
2022-10-15T17:03:45.484Z,15.88
2022-10-15T17:06:13.768Z,15.85
2022-10-15T17:08:43.620Z,15.80
2022-10-15T17:11:11.105Z,15.77
2022-10-15T17:13:37.732Z,15.74
2022-10-15T17:16:11.750Z,15.72
2022-10-15T17:18:39.557Z,15.68
2022-10-15T17:21:09.177Z,15.62
2022-10-15T17:23:36.315Z,15.58
2022-10-15T17:26:05.175Z,15.55
2022-10-15T17:28:31.748Z,15.51
2022-10-15T17:31:03.063Z,15.48
2022-10-15T17:33:31.103Z,15.44
2022-10-15T17:36:01.728Z,15.41
2022-10-15T17:38:28.364Z,15.40
2022-10-15T17:40:55.148Z,15.37
2022-10-15T17:43:21.844Z,15.29
2022-10-15T17:45:48.507Z,15.24
2022-10-15T17:48:15.736Z,15.21
2022-10-15T17:50:45.419Z,15.17
2022-10-15T17:53:13.427Z,15.12
2022-10-15T17:55:40.352Z,15.07
2022-10-15T17:58:07.507Z,15.04
2022-10-15T18:00:34.238Z,14.98
2022-10-15T18:03:01.284Z,14.93
2022-10-15T18:05:28.249Z,14.88
2022-10-15T18:07:56.276Z,14.81
2022-10-15T18:10:23.083Z,14.76
2022-10-15T18:12:49.765Z,14.69
2022-10-15T18:15:16.510Z,14.63
2022-10-15T18:17:43.071Z,14.58
2022-10-15T18:20:10.295Z,14.56
2022-10-15T18:22:36.913Z,14.53
2022-10-15T18:25:05.925Z,14.50
2022-10-15T18:27:34.537Z,14.49
2022-10-15T18:30:01.515Z,14.47
2022-10-15T18:32:28.211Z,14.46
2022-10-15T18:34:54.998Z,14.42
2022-10-15T18:37:21.644Z,14.41
2022-10-15T18:39:48.254Z,14.41
2022-10-15T18:42:16.164Z,14.40
2022-10-15T18:44:42.966Z,14.40
2022-10-15T18:47:09.750Z,14.40
2022-10-15T18:49:36.412Z,14.42
2022-10-15T18:52:10.808Z,14.41
2022-10-15T18:54:48.443Z,14.39
2022-10-15T18:57:16.415Z,14.38
2022-10-15T18:59:43.174Z,14.37
2022-10-15T19:02:10.050Z,14.37
2022-10-15T19:04:36.888Z,14.34
2022-10-15T19:07:04.530Z,14.34
2022-10-15T19:09:31.546Z,14.32
2022-10-15T19:11:58.778Z,14.30
2022-10-15T19:14:30.731Z,14.29
2022-10-15T19:16:58.065Z,14.27
2022-10-15T19:19:25.595Z,14.27
2022-10-15T19:21:53.026Z,14.25
2022-10-15T19:24:21.487Z,14.24
2022-10-15T19:26:49.269Z,14.22
2022-10-15T19:29:16.104Z,14.20
2022-10-15T19:31:45.854Z,14.21
2022-10-15T19:34:13.263Z,14.20
2022-10-15T19:36:42.447Z,14.19
2022-10-15T19:39:12.542Z,14.19
2022-10-15T19:41:40.698Z,14.19
2022-10-15T19:44:08.914Z,14.21
2022-10-15T19:46:35.941Z,14.22
2022-10-15T19:49:04.132Z,14.23
2022-10-15T19:51:31.574Z,14.25
2022-10-15T19:54:00.110Z,14.25
2022-10-15T19:56:27.995Z,14.28
2022-10-15T19:58:56.058Z,14.32
2022-10-15T20:01:22.991Z,14.34
2022-10-15T20:03:49.716Z,14.36
2022-10-15T20:06:18.455Z,14.39
2022-10-15T20:08:45.010Z,14.39
2022-10-15T20:11:12.211Z,14.39
2022-10-15T20:13:39.340Z,14.41
2022-10-15T20:16:07.896Z,14.42
2022-10-15T20:18:35.370Z,14.42
2022-10-15T20:21:07.008Z,14.43
2022-10-15T20:23:35.102Z,14.44
2022-10-15T20:26:04.643Z,14.43
2022-10-15T20:28:31.547Z,14.43
2022-10-15T20:30:58.199Z,14.43
2022-10-15T20:33:25.009Z,14.44
2022-10-15T20:35:55.216Z,14.44
2022-10-15T20:38:21.986Z,14.44
2022-10-15T20:40:50.121Z,14.46
2022-10-15T20:43:18.365Z,14.47
2022-10-15T20:45:46.099Z,14.48
2022-10-15T20:48:18.327Z,14.49
2022-10-15T20:50:49.717Z,14.49
2022-10-15T20:53:17.082Z,14.49
2022-10-15T20:55:44.096Z,14.50
2022-10-15T21:00:42.423Z,14.53
2022-10-15T21:03:09.105Z,14.55
2022-10-15T21:05:35.685Z,14.57
2022-10-15T21:08:02.317Z,14.57
2022-10-15T21:10:28.977Z,14.56
2022-10-15T21:12:55.614Z,14.58
2022-10-15T21:15:24.028Z,14.59
2022-10-15T21:17:50.625Z,14.58
2022-10-15T21:20:17.433Z,14.56
2022-10-15T21:22:44.071Z,14.57
2022-10-15T21:25:10.697Z,14.56
2022-10-15T21:27:38.576Z,14.57
2022-10-15T21:30:06.244Z,14.56
2022-10-15T21:32:34.538Z,14.56
2022-10-15T21:35:06.176Z,14.56
2022-10-15T21:37:34.687Z,14.56
2022-10-15T21:40:03.796Z,14.57
2022-10-15T21:42:32.806Z,14.58
2022-10-15T21:44:59.471Z,14.58
2022-10-15T21:47:26.672Z,14.59
2022-10-15T21:49:55.568Z,14.57
2022-10-15T21:52:22.875Z,14.58
2022-10-15T21:54:51.671Z,14.58
2022-10-15T21:57:18.353Z,14.56
2022-10-15T21:59:45.304Z,14.54
2022-10-15T22:02:12.116Z,14.53
2022-10-15T22:04:39.121Z,14.54
2022-10-15T22:07:09.137Z,14.53
2022-10-15T22:09:36.199Z,14.50
2022-10-15T22:12:03.039Z,14.48
2022-10-15T22:14:30.441Z,14.47
2022-10-15T22:16:57.152Z,14.46
2022-10-15T22:19:23.827Z,14.45
2022-10-15T22:21:50.461Z,14.43
2022-10-15T22:24:20.638Z,14.41
2022-10-15T22:26:49.041Z,14.38
2022-10-15T22:29:18.782Z,14.36
2022-10-15T22:31:45.539Z,14.35
2022-10-15T22:34:12.290Z,14.34
2022-10-15T22:36:39.325Z,14.32
2022-10-15T22:39:07.804Z,14.29
2022-10-15T22:41:40.215Z,14.28
2022-10-15T22:44:09.216Z,14.28
2022-10-15T22:46:37.969Z,14.26
2022-10-15T22:49:05.627Z,14.25
2022-10-15T22:51:32.579Z,14.25
2022-10-15T22:54:00.099Z,14.25
2022-10-15T22:56:28.076Z,14.25
2022-10-15T22:58:57.870Z,14.24
2022-10-15T23:01:26.209Z,14.25
2022-10-15T23:03:55.672Z,14.25
2022-10-15T23:06:23.490Z,14.24
2022-10-15T23:08:51.656Z,14.23
2022-10-15T23:11:22.860Z,14.23
2022-10-15T23:13:53.731Z,14.22
2022-10-15T23:16:23.926Z,14.22
2022-10-15T23:18:54.583Z,14.22
2022-10-15T23:21:27.808Z,14.20
2022-10-15T23:23:54.947Z,14.21
2022-10-15T23:26:22.488Z,14.22
2022-10-15T23:28:51.434Z,14.20
2022-10-15T23:31:19.962Z,14.21
2022-10-15T23:33:48.335Z,14.19
2022-10-15T23:36:15.359Z,14.19
2022-10-15T23:38:44.765Z,14.19
2022-10-15T23:41:11.917Z,14.18
2022-10-15T23:43:38.979Z,14.20
2022-10-15T23:46:05.765Z,14.19
2022-10-15T23:48:32.642Z,14.18
2022-10-15T23:51:03.667Z,14.18
2022-10-15T23:53:33.084Z,14.19
2022-10-15T23:56:01.482Z,14.19
2022-10-15T23:58:28.102Z,14.20
